Downstream station:
SHEF ID: NFSM7 N Fork Spring River nr Purcell, MO
STATION TYPE:
STAGE RIV-FLOW
ft cfs
Ccp-Rev Ccp-Rev
(US/Central)
03/22 00:00 5.18 572
03/22 01:00 5.93 881
03/22 02:00 6.90 1323
03/22 03:00 7.83 1743
03/22 04:00 8.88 2266
03/22 05:00 10.06 2915
03/22 06:00 11.10 3521
03/22 07:00 11.94 3988
03/22 08:00 12.56 4344
03/22 09:00 12.99 4597
03/22 10:00 13.25 4751
03/22 11:00 13.40 4841
03/22 12:00 13.36 4817
03/22 13:00 13.26 4757
03/22 14:00 13.09 4656
03/22 15:00 12.84 4508
03/22 16:00 12.60 4368
03/22 17:00 12.34 4217
03/22 18:00 ---- ----
03/22 19:00 11.87 3949
03/22 20:00 11.66 3831
03/22 21:00 11.49 3736
03/22 22:00 11.35 3658
03/22 23:00 11.22 3587